Time;durP1;ratioP1;P1;durP2;ratioP2;P2;SDS_P1;SDS_P2;PMS_P1;PMS_P2;Temp;Humidity;BMP_temperature;BMP_pressure;BME280_temperature;BME280_humidity;BME280_pressure;Samples;Min_cycle;Max_cycle;Signal;HPM_P1;HPM_P2
2020/12/24 00:00:10;;;;;;;463.87;224.43;;;;;;;;;;4372253;32;20215;-52
2020/12/24 00:02:35;;;;;;;463.53;220.43;;;;;;;;;;4370411;32;20517;-53
2020/12/24 00:05:01;;;;;;;524.87;213.57;;;;;;;;;;4371623;32;20237;-54
2020/12/24 00:07:26;;;;;;;422.20;188.57;;;;;;;;;;4368366;32;20727;-52
2020/12/24 00:09:52;;;;;;;397.63;172.93;;;;;;;;;;4364844;32;20644;-52
2020/12/24 00:12:18;;;;;;;377.17;173.13;;;;;;;;;;4356920;32;20260;-52
2020/12/24 00:14:43;;;;;;;385.13;164.57;;;;;;;;;;4368767;32;20320;-53
2020/12/24 00:17:10;;;;;;;325.30;156.87;;;;;;;;;;4364897;32;20298;-53
2020/12/24 00:19:35;;;;;;;404.80;163.33;;;;;;;;;;4371262;32;20723;-54
2020/12/24 00:22:01;;;;;;;373.80;149.53;;;;;;;;;;4370959;32;20342;-53
2020/12/24 00:24:26;;;;;;;400.23;146.40;;;;;;;;;;4369720;32;20647;-53
2020/12/24 00:26:52;;;;;;;332.43;144.73;;;;;;;;;;4363755;32;20737;-54
2020/12/24 00:29:17;;;;;;;324.07;137.53;;;;;;;;;;4357327;32;20238;-53
2020/12/24 00:31:43;;;;;;;380.83;157.43;;;;;;;;;;4370704;32;20344;-52
2020/12/24 00:34:08;;;;;;;350.33;150.97;;;;;;;;;;4357307;32;20229;-54
2020/12/24 00:36:34;;;;;;;350.23;152.23;;;;;;;;;;4365802;32;20331;-53
2020/12/24 00:39:00;;;;;;;353.57;160.63;;;;;;;;;;4367611;32;20273;-52
2020/12/24 00:41:26;;;;;;;369.80;169.63;;;;;;;;;;4368097;32;20266;-53
2020/12/24 00:43:52;;;;;;;388.00;168.43;;;;;;;;;;4366261;32;20252;-53
2020/12/24 00:46:18;;;;;;;327.23;167.00;;;;;;;;;;4364262;32;20281;-52
2020/12/24 00:48:43;;;;;;;347.37;169.57;;;;;;;;;;4361017;32;20256;-53
2020/12/24 00:51:09;;;;;;;381.50;179.73;;;;;;;;;;4371580;32;20285;-52
2020/12/24 00:53:34;;;;;;;370.63;176.90;;;;;;;;;;4370169;32;20723;-52
2020/12/24 00:56:00;;;;;;;412.40;179.00;;;;;;;;;;4370746;32;20364;-52
2020/12/24 00:58:26;;;;;;;353.07;166.70;;;;;;;;;;4367731;32;20229;-52
2020/12/24 01:00:51;;;;;;;369.43;163.30;;;;;;;;;;4366171;32;20323;-52
2020/12/24 01:03:17;;;;;;;307.83;151.70;;;;;;;;;;4373361;32;20249;-53
2020/12/24 01:05:42;;;;;;;355.20;157.07;;;;;;;;;;4367267;32;20712;-53
2020/12/24 01:08:08;;;;;;;291.83;145.73;;;;;;;;;;4370811;32;20190;-53
2020/12/24 01:10:34;;;;;;;335.77;146.53;;;;;;;;;;4368055;32;20367;-53
2020/12/24 01:12:59;;;;;;;284.37;136.10;;;;;;;;;;4369554;32;20221;-54
2020/12/24 01:15:25;;;;;;;285.70;133.43;;;;;;;;;;4374211;32;20325;-53
2020/12/24 01:17:51;;;;;;;265.47;132.93;;;;;;;;;;4370805;32;20318;-53
2020/12/24 01:20:16;;;;;;;293.60;129.93;;;;;;;;;;4368611;32;20250;-54
2020/12/24 01:22:42;;;;;;;266.73;126.73;;;;;;;;;;4371262;32;20308;-52
2020/12/24 01:25:07;;;;;;;254.63;113.67;;;;;;;;;;4363680;32;20317;-56
2020/12/24 01:27:33;;;;;;;253.83;110.30;;;;;;;;;;4370355;32;20227;-57
2020/12/24 01:29:58;;;;;;;217.33;104.23;;;;;;;;;;4370766;32;20308;-57
2020/12/24 01:32:24;;;;;;;223.00;97.93;;;;;;;;;;4372565;32;20311;-57
2020/12/24 01:34:49;;;;;;;199.67;86.67;;;;;;;;;;4360068;32;20713;-56
2020/12/24 01:37:15;;;;;;;135.60;58.80;;;;;;;;;;4370683;32;20293;-56
2020/12/24 01:39:41;;;;;;;180.67;71.07;;;;;;;;;;4373053;32;20252;-56
2020/12/24 01:42:06;;;;;;;269.93;85.37;;;;;;;;;;4370006;32;20273;-56
2020/12/24 01:44:32;;;;;;;220.33;88.03;;;;;;;;;;4372302;32;20665;-57
2020/12/24 01:46:57;;;;;;;296.33;93.80;;;;;;;;;;4369648;32;20787;-56
2020/12/24 01:49:23;;;;;;;328.97;88.87;;;;;;;;;;4372845;32;20327;-57
2020/12/24 01:51:51;;;;;;;193.63;75.50;;;;;;;;;;4359834;32;20388;-56
2020/12/24 01:54:19;;;;;;;162.73;70.97;;;;;;;;;;4372019;32;20433;-56
2020/12/24 01:56:45;;;;;;;151.73;64.23;;;;;;;;;;4370475;32;20632;-57
2020/12/24 01:59:15;;;;;;;160.53;63.57;;;;;;;;;;4370398;32;20214;-56
2020/12/24 02:01:43;;;;;;;150.87;63.43;;;;;;;;;;4359580;32;20671;-56
2020/12/24 02:04:10;;;;;;;137.23;59.37;;;;;;;;;;4372349;32;20214;-56
2020/12/24 02:06:35;;;;;;;123.70;55.70;;;;;;;;;;4363481;32;20215;-56
2020/12/24 02:09:01;;;;;;;112.10;53.57;;;;;;;;;;4371333;32;20218;-56
2020/12/24 02:11:26;;;;;;;120.07;55.33;;;;;;;;;;4368276;32;20314;-56
2020/12/24 02:13:52;;;;;;;274.73;67.83;;;;;;;;;;4371580;32;20678;-55
2020/12/24 02:16:17;;;;;;;123.10;56.47;;;;;;;;;;4373300;32;20284;-55
2020/12/24 02:18:43;;;;;;;140.67;59.40;;;;;;;;;;4368386;32;20514;-56
2020/12/24 02:21:08;;;;;;;137.37;58.80;;;;;;;;;;4370063;32;20356;-56
2020/12/24 02:23:34;;;;;;;123.20;57.50;;;;;;;;;;4368617;32;20336;-56
2020/12/24 02:25:59;;;;;;;164.03;58.03;;;;;;;;;;4359198;32;20317;-56
2020/12/24 02:28:24;;;;;;;114.10;55.87;;;;;;;;;;4369563;32;20673;-54
2020/12/24 02:30:50;;;;;;;130.70;56.97;;;;;;;;;;4371981;32;20415;-54
2020/12/24 02:33:15;;;;;;;191.80;63.63;;;;;;;;;;4372383;32;20239;-54
2020/12/24 02:35:41;;;;;;;129.57;59.53;;;;;;;;;;4359886;32;20289;-54
2020/12/24 02:38:06;;;;;;;114.47;59.60;;;;;;;;;;4372012;32;20260;-54
2020/12/24 02:40:32;;;;;;;105.30;59.53;;;;;;;;;;4370931;32;20647;-52
2020/12/24 02:42:57;;;;;;;150.53;64.73;;;;;;;;;;4358171;32;20506;-54
2020/12/24 02:45:22;;;;;;;174.30;74.77;;;;;;;;;;4372970;32;20289;-54
2020/12/24 02:47:48;;;;;;;153.10;71.27;;;;;;;;;;4372462;32;20207;-54
2020/12/24 02:50:13;;;;;;;154.27;68.33;;;;;;;;;;4371335;32;20316;-56
2020/12/24 02:52:39;;;;;;;118.83;59.03;;;;;;;;;;4358021;32;20222;-56
2020/12/24 02:55:05;;;;;;;156.90;61.23;;;;;;;;;;4372163;32;20299;-55
2020/12/24 02:57:31;;;;;;;111.90;55.67;;;;;;;;;;4372766;32;20264;-56
2020/12/24 02:59:57;;;;;;;133.47;56.83;;;;;;;;;;4370695;32;20603;-56
2020/12/24 03:02:22;;;;;;;169.27;56.63;;;;;;;;;;4372097;32;20257;-56
2020/12/24 03:04:48;;;;;;;172.80;53.73;;;;;;;;;;4372411;32;20651;-56
2020/12/24 03:07:13;;;;;;;105.20;48.33;;;;;;;;;;4372617;32;20961;-56
2020/12/24 03:09:39;;;;;;;124.37;46.63;;;;;;;;;;4369359;32;20613;-56
2020/12/24 03:12:05;;;;;;;122.33;47.73;;;;;;;;;;4363728;32;20308;-56
2020/12/24 03:14:31;;;;;;;119.70;46.20;;;;;;;;;;4369071;32;20540;-56
2020/12/24 03:16:57;;;;;;;120.73;44.07;;;;;;;;;;4372671;32;20228;-56
2020/12/24 03:19:23;;;;;;;90.80;42.70;;;;;;;;;;4371807;32;20576;-55
2020/12/24 03:21:48;;;;;;;75.63;44.97;;;;;;;;;;4364184;32;20317;-55
2020/12/24 03:24:14;;;;;;;79.63;45.37;;;;;;;;;;4370635;32;20757;-54
2020/12/24 03:26:39;;;;;;;89.50;45.30;;;;;;;;;;4369819;32;20396;-56
2020/12/24 03:29:05;;;;;;;137.13;49.40;;;;;;;;;;4369517;32;20256;-55
2020/12/24 03:31:30;;;;;;;115.07;50.23;;;;;;;;;;4375909;32;20395;-55
2020/12/24 03:33:56;;;;;;;136.40;51.87;;;;;;;;;;4367082;32;20254;-55
2020/12/24 03:36:22;;;;;;;124.03;52.33;;;;;;;;;;4372287;32;20454;-55
2020/12/24 03:38:47;;;;;;;115.37;52.27;;;;;;;;;;4372847;32;20221;-55
2020/12/24 03:41:13;;;;;;;120.53;53.50;;;;;;;;;;4357775;32;20339;-56
2020/12/24 03:43:38;;;;;;;99.43;50.60;;;;;;;;;;4370171;32;20302;-57
2020/12/24 03:46:04;;;;;;;96.07;50.47;;;;;;;;;;4368714;32;20269;-56
2020/12/24 03:48:30;;;;;;;92.10;48.37;;;;;;;;;;4368360;32;20383;-56
2020/12/24 03:50:55;;;;;;;122.97;53.00;;;;;;;;;;4368587;32;20289;-55
2020/12/24 03:53:21;;;;;;;109.63;47.03;;;;;;;;;;4366202;32;20294;-56
2020/12/24 03:55:47;;;;;;;66.90;40.10;;;;;;;;;;4370968;32;20311;-56
2020/12/24 03:58:12;;;;;;;91.30;42.80;;;;;;;;;;4356433;32;20273;-55
2020/12/24 04:00:39;;;;;;;67.53;41.43;;;;;;;;;;4355932;32;20698;-56
2020/12/24 04:03:05;;;;;;;117.90;43.77;;;;;;;;;;4368853;32;20210;-56
2020/12/24 04:05:30;;;;;;;86.47;43.10;;;;;;;;;;4371413;32;20333;-56
2020/12/24 04:07:56;;;;;;;102.70;46.67;;;;;;;;;;4371122;32;20225;-55
2020/12/24 04:10:21;;;;;;;121.67;46.93;;;;;;;;;;4370461;32;20287;-56
2020/12/24 04:12:47;;;;;;;75.77;45.07;;;;;;;;;;4371378;32;20639;-56
2020/12/24 04:15:12;;;;;;;72.53;41.30;;;;;;;;;;4371817;32;20248;-56
2020/12/24 04:17:37;;;;;;;62.70;38.70;;;;;;;;;;4368312;32;20312;-56
2020/12/24 04:20:03;;;;;;;92.17;41.90;;;;;;;;;;4358119;32;20433;-56
2020/12/24 04:22:29;;;;;;;89.43;44.23;;;;;;;;;;4357220;32;20362;-55
2020/12/24 04:24:54;;;;;;;97.70;43.83;;;;;;;;;;4368420;32;20240;-55
2020/12/24 04:27:20;;;;;;;95.80;45.83;;;;;;;;;;4371117;32;20297;-56
2020/12/24 04:29:45;;;;;;;89.33;46.87;;;;;;;;;;4356077;32;20626;-56
2020/12/24 04:32:11;;;;;;;95.10;44.50;;;;;;;;;;4364876;32;20324;-55
2020/12/24 04:34:36;;;;;;;90.80;52.93;;;;;;;;;;4357816;32;20306;-55
2020/12/24 04:37:02;;;;;;;90.03;48.70;;;;;;;;;;4360424;32;20319;-54
2020/12/24 04:39:27;;;;;;;80.70;47.13;;;;;;;;;;4360174;32;20432;-54
2020/12/24 04:41:53;;;;;;;78.30;44.47;;;;;;;;;;4368822;32;20675;-53
2020/12/24 04:44:19;;;;;;;74.87;44.90;;;;;;;;;;4361046;32;20332;-54
2020/12/24 04:46:47;;;;;;;98.17;43.10;;;;;;;;;;4374145;32;20295;-55
2020/12/24 04:49:14;;;;;;;85.80;41.33;;;;;;;;;;4377234;32;20269;-55
2020/12/24 04:51:43;;;;;;;72.40;39.83;;;;;;;;;;4374227;32;20353;-55
2020/12/24 04:54:09;;;;;;;238.83;44.73;;;;;;;;;;4361669;32;20261;-55
2020/12/24 04:56:38;;;;;;;98.80;38.00;;;;;;;;;;4372708;32;20202;-55
2020/12/24 04:59:06;;;;;;;76.03;35.83;;;;;;;;;;4347334;32;20362;-55
2020/12/24 05:01:31;;;;;;;103.03;39.97;;;;;;;;;;4374072;32;20194;-55
2020/12/24 05:03:57;;;;;;;62.03;39.13;;;;;;;;;;4370532;32;20222;-55
2020/12/24 05:06:22;;;;;;;72.83;38.43;;;;;;;;;;4373637;32;20273;-55
2020/12/24 05:08:53;;;;;;;114.03;40.73;;;;;;;;;;4374360;32;20229;-54
2020/12/24 05:11:29;;;;;;;70.07;42.50;;;;;;;;;;4359467;32;20267;-54
2020/12/24 05:14:18;;;;;;;79.37;38.60;;;;;;;;;;4374909;32;20243;-54
2020/12/24 05:16:56;;;;;;;97.73;39.80;;;;;;;;;;4373467;32;20311;-55
2020/12/24 05:19:22;;;;;;;77.07;40.37;;;;;;;;;;4374293;32;20327;-53
2020/12/24 05:21:47;;;;;;;91.37;40.90;;;;;;;;;;4374516;32;20699;-53
2020/12/24 05:24:27;;;;;;;76.97;39.60;;;;;;;;;;4372749;32;20850;-54
2020/12/24 05:27:06;;;;;;;79.70;40.07;;;;;;;;;;4371244;32;20202;-54
2020/12/24 05:29:37;;;;;;;70.03;38.73;;;;;;;;;;4374080;32;20300;-53
2020/12/24 05:32:03;;;;;;;101.63;44.40;;;;;;;;;;4372402;32;20619;-53
2020/12/24 05:34:29;;;;;;;109.43;49.90;;;;;;;;;;4378386;32;20257;-53
2020/12/24 05:37:17;;;;;;;91.50;49.30;;;;;;;;;;4357577;32;20381;-52
2020/12/24 05:39:47;;;;;;;97.30;49.40;;;;;;;;;;4374417;32;20206;-53
2020/12/24 05:42:12;;;;;;;82.77;46.43;;;;;;;;;;4373438;32;20705;-54
2020/12/24 05:44:40;;;;;;;84.53;46.60;;;;;;;;;;4372494;32;20218;-53
2020/12/24 05:47:06;;;;;;;77.63;40.47;;;;;;;;;;4369389;32;20198;-54
2020/12/24 05:49:33;;;;;;;65.27;38.23;;;;;;;;;;4368231;32;20354;-55
2020/12/24 05:52:01;;;;;;;79.23;39.30;;;;;;;;;;4371632;32;20210;-55
2020/12/24 05:54:28;;;;;;;74.80;41.33;;;;;;;;;;4367035;32;20250;-54
2020/12/24 05:56:55;;;;;;;83.17;42.33;;;;;;;;;;4371066;32;20307;-57
2020/12/24 05:59:24;;;;;;;109.50;46.93;;;;;;;;;;4375236;32;20782;-56
2020/12/24 06:02:05;;;;;;;76.23;38.17;;;;;;;;;;4370558;32;20241;-55
2020/12/24 06:04:43;;;;;;;97.73;43.10;;;;;;;;;;4370545;32;20730;-56
2020/12/24 06:07:10;;;;;;;88.40;44.30;;;;;;;;;;4371704;32;20594;-56
2020/12/24 06:09:38;;;;;;;91.23;42.00;;;;;;;;;;4359157;32;20285;-56
2020/12/24 06:12:15;;;;;;;91.60;41.23;;;;;;;;;;4358593;32;20221;-55
2020/12/24 06:14:47;;;;;;;84.27;43.50;;;;;;;;;;4371196;32;20325;-56
2020/12/24 06:17:13;;;;;;;90.93;41.23;;;;;;;;;;4369103;32;20406;-56
2020/12/24 06:19:40;;;;;;;105.20;43.10;;;;;;;;;;4359892;32;20544;-56
2020/12/24 06:22:07;;;;;;;103.83;45.10;;;;;;;;;;4371636;32;20218;-56
2020/12/24 06:24:34;;;;;;;88.80;44.67;;;;;;;;;;4374212;32;20390;-56
2020/12/24 06:27:09;;;;;;;87.63;44.03;;;;;;;;;;4355613;32;20245;-56
2020/12/24 06:29:38;;;;;;;107.40;41.67;;;;;;;;;;4369862;32;20285;-56
2020/12/24 06:32:07;;;;;;;100.07;43.60;;;;;;;;;;4372324;32;20304;-56
2020/12/24 06:34:37;;;;;;;83.83;41.80;;;;;;;;;;4379099;32;20238;-54
2020/12/24 06:37:17;;;;;;;80.80;45.63;;;;;;;;;;4356966;32;20354;-56
2020/12/24 06:39:51;;;;;;;84.67;43.77;;;;;;;;;;4369061;32;20264;-54
2020/12/24 06:42:38;;;;;;;100.57;47.40;;;;;;;;;;4355584;32;20335;-55
2020/12/24 06:45:30;;;;;;;112.70;53.33;;;;;;;;;;4362242;32;20580;-56
2020/12/24 06:48:22;;;;;;;105.20;56.40;;;;;;;;;;4368674;32;20673;-55
2020/12/24 06:51:03;;;;;;;142.50;68.97;;;;;;;;;;4371811;32;20670;-53
2020/12/24 06:53:29;;;;;;;116.70;62.20;;;;;;;;;;4355749;32;20752;-53
2020/12/24 06:56:22;;;;;;;110.27;61.93;;;;;;;;;;4363198;32;20336;-53
2020/12/24 06:58:53;;;;;;;147.77;62.77;;;;;;;;;;4367051;32;20217;-52
2020/12/24 07:01:28;;;;;;;183.90;60.90;;;;;;;;;;4370930;32;20551;-52
2020/12/24 07:04:04;;;;;;;139.17;55.97;;;;;;;;;;4372338;32;20272;-52
2020/12/24 07:06:42;;;;;;;111.80;59.03;;;;;;;;;;4365410;32;20737;-51
2020/12/24 07:09:12;;;;;;;111.73;59.20;;;;;;;;;;4361614;32;20296;-51
2020/12/24 07:11:48;;;;;;;114.10;59.30;;;;;;;;;;4375017;32;20296;-52
2020/12/24 07:14:22;;;;;;;117.90;60.60;;;;;;;;;;4370868;32;20226;-52
2020/12/24 07:16:48;;;;;;;113.87;58.57;;;;;;;;;;4357736;32;20307;-52
2020/12/24 07:19:16;;;;;;;121.77;62.80;;;;;;;;;;4364474;32;20218;-52
2020/12/24 07:21:48;;;;;;;153.10;71.87;;;;;;;;;;4376332;32;20356;-54
2020/12/24 07:24:15;;;;;;;174.30;76.10;;;;;;;;;;4370265;32;20249;-52
2020/12/24 07:26:43;;;;;;;156.20;76.97;;;;;;;;;;4371157;32;20202;-53
2020/12/24 07:29:12;;;;;;;172.53;82.47;;;;;;;;;;4370756;32;20242;-51
2020/12/24 07:31:38;;;;;;;159.47;80.97;;;;;;;;;;4370369;32;20285;-52
2020/12/24 07:34:04;;;;;;;176.87;84.27;;;;;;;;;;4369369;32;20319;-53
2020/12/24 07:36:30;;;;;;;174.33;80.27;;;;;;;;;;4369915;32;20728;-53
2020/12/24 07:38:56;;;;;;;174.57;87.07;;;;;;;;;;4368466;32;20308;-53
2020/12/24 07:41:23;;;;;;;158.93;86.20;;;;;;;;;;4368761;32;20327;-54
2020/12/24 07:43:50;;;;;;;155.20;79.40;;;;;;;;;;4343985;32;20230;-53
2020/12/24 07:46:21;;;;;;;154.23;78.33;;;;;;;;;;4369701;32;20236;-53
2020/12/24 07:48:48;;;;;;;143.23;77.70;;;;;;;;;;4372411;32;20229;-52
2020/12/24 07:51:14;;;;;;;161.93;83.90;;;;;;;;;;4371832;32;20344;-53
2020/12/24 07:53:39;;;;;;;167.37;86.33;;;;;;;;;;4370924;32;20607;-52
2020/12/24 07:56:06;;;;;;;193.77;96.80;;;;;;;;;;4362047;32;21201;-55
2020/12/24 07:58:32;;;;;;;224.20;109.40;;;;;;;;;;4371634;32;20202;-53
2020/12/24 08:01:02;;;;;;;197.43;102.73;;;;;;;;;;4374167;32;20273;-54
2020/12/24 08:03:28;;;;;;;203.03;106.03;;;;;;;;;;4360374;32;20240;-57
2020/12/24 08:06:04;;;;;;;211.13;98.83;;;;;;;;;;4369835;32;20349;-55
2020/12/24 08:08:31;;;;;;;199.73;91.37;;;;;;;;;;4349404;32;20740;-53
2020/12/24 08:10:57;;;;;;;203.13;81.63;;;;;;;;;;4354842;32;20341;-55
2020/12/24 08:13:23;;;;;;;168.50;77.80;;;;;;;;;;4366283;32;20289;-54
2020/12/24 08:15:50;;;;;;;192.43;86.87;;;;;;;;;;4365778;32;20210;-52
2020/12/24 08:18:22;;;;;;;157.97;75.43;;;;;;;;;;4367029;32;20218;-52
2020/12/24 08:21:10;;;;;;;141.13;69.53;;;;;;;;;;4366232;32;20356;-53
2020/12/24 08:23:55;;;;;;;151.33;70.37;;;;;;;;;;4366827;32;20725;-53
2020/12/24 08:26:21;;;;;;;124.97;60.07;;;;;;;;;;4367580;32;20228;-55
2020/12/24 08:29:01;;;;;;;138.27;63.23;;;;;;;;;;4367303;32;20309;-52
2020/12/24 08:31:28;;;;;;;169.43;86.43;;;;;;;;;;4359910;32;20325;-53
2020/12/24 08:33:54;;;;;;;176.27;86.53;;;;;;;;;;4367490;32;20768;-53
2020/12/24 08:36:21;;;;;;;145.33;47.03;;;;;;;;;;4367997;32;20308;-53
2020/12/24 08:38:47;;;;;;;93.27;42.73;;;;;;;;;;4368418;32;20315;-53
2020/12/24 08:41:24;;;;;;;88.77;45.60;;;;;;;;;;4352702;32;20821;-53
2020/12/24 08:43:56;;;;;;;103.50;56.97;;;;;;;;;;4363251;32;20319;-54
2020/12/24 08:46:23;;;;;;;114.00;48.40;;;;;;;;;;4352863;32;20350;-55
2020/12/24 08:48:49;;;;;;;99.00;45.10;;;;;;;;;;4354322;32;20305;-51
2020/12/24 08:51:17;;;;;;;91.73;46.53;;;;;;;;;;4354694;32;20368;-52
2020/12/24 08:53:43;;;;;;;96.40;48.60;;;;;;;;;;4339367;32;20301;-51
2020/12/24 08:56:18;;;;;;;137.30;56.03;;;;;;;;;;4368706;32;20269;-52
2020/12/24 08:58:50;;;;;;;116.43;57.00;;;;;;;;;;4363081;32;20959;-53
2020/12/24 09:01:21;;;;;;;143.80;61.50;;;;;;;;;;4367170;32;20276;-52
2020/12/24 09:03:48;;;;;;;158.53;65.23;;;;;;;;;;4367746;32;20812;-51
2020/12/24 09:06:17;;;;;;;112.97;60.93;;;;;;;;;;4361884;32;20327;-52
2020/12/24 09:08:49;;;;;;;118.40;57.13;;;;;;;;;;4367008;32;20305;-51
2020/12/24 09:11:25;;;;;;;133.67;64.57;;;;;;;;;;4367816;32;20308;-53
2020/12/24 09:13:58;;;;;;;135.23;63.43;;;;;;;;;;4367638;32;20561;-52
2020/12/24 09:16:24;;;;;;;115.37;58.63;;;;;;;;;;4351504;32;21059;-52
2020/12/24 09:19:09;;;;;;;108.10;56.53;;;;;;;;;;4367351;32;20245;-51
2020/12/24 09:21:36;;;;;;;137.40;65.73;;;;;;;;;;4363937;32;20265;-52
2020/12/24 09:24:09;;;;;;;129.03;69.10;;;;;;;;;;4361698;32;20206;-51
2020/12/24 09:26:45;;;;;;;146.43;78.07;;;;;;;;;;4370169;32;20294;-52
2020/12/24 09:29:10;;;;;;;144.70;74.47;;;;;;;;;;4369753;32;20241;-51
2020/12/24 09:31:36;;;;;;;150.73;73.43;;;;;;;;;;4350105;32;20336;-52
2020/12/24 09:34:01;;;;;;;139.87;75.73;;;;;;;;;;4370403;32;20305;-52
2020/12/24 09:36:27;;;;;;;132.70;70.23;;;;;;;;;;4370134;32;20348;-52
2020/12/24 09:38:52;;;;;;;137.20;62.00;;;;;;;;;;4346013;32;20927;-52
2020/12/24 09:41:18;;;;;;;144.17;62.20;;;;;;;;;;4370665;32;20384;-52
2020/12/24 09:43:43;;;;;;;132.53;68.23;;;;;;;;;;4355857;32;20309;-52
2020/12/24 09:46:13;;;;;;;148.17;64.50;;;;;;;;;;4352525;32;20217;-52
2020/12/24 09:48:38;;;;;;;162.27;70.87;;;;;;;;;;4353264;32;20449;-52
2020/12/24 09:51:04;;;;;;;155.87;61.53;;;;;;;;;;4369936;32;20289;-57
2020/12/24 09:53:29;;;;;;;114.37;59.03;;;;;;;;;;4364188;32;20264;-56
2020/12/24 09:55:54;;;;;;;129.93;62.80;;;;;;;;;;4369473;32;20308;-56
2020/12/24 09:58:20;;;;;;;120.97;63.50;;;;;;;;;;4368839;32;20288;-58
2020/12/24 10:00:45;;;;;;;119.57;62.27;;;;;;;;;;4370358;32;20285;-56
2020/12/24 10:03:11;;;;;;;132.93;65.23;;;;;;;;;;4356874;32;20325;-56
2020/12/24 10:05:36;;;;;;;130.30;64.80;;;;;;;;;;4369780;32;20368;-53
2020/12/24 10:08:02;;;;;;;148.47;70.17;;;;;;;;;;4370822;32;20387;-53
2020/12/24 10:10:28;;;;;;;150.10;73.37;;;;;;;;;;4369446;32;20691;-52
2020/12/24 10:12:53;;;;;;;156.87;77.73;;;;;;;;;;4370215;32;20324;-53
2020/12/24 10:15:19;;;;;;;150.57;74.57;;;;;;;;;;4370391;32;20285;-53
2020/12/24 10:17:44;;;;;;;163.00;76.50;;;;;;;;;;4370092;32;20951;-53
2020/12/24 10:20:10;;;;;;;158.53;78.93;;;;;;;;;;4370157;32;20352;-53
2020/12/24 10:22:35;;;;;;;173.37;82.27;;;;;;;;;;4369980;32;20206;-52
2020/12/24 10:25:00;;;;;;;182.47;85.67;;;;;;;;;;4370167;32;20309;-52
2020/12/24 10:27:26;;;;;;;185.57;89.67;;;;;;;;;;4369330;32;20301;-53
2020/12/24 10:29:52;;;;;;;188.20;92.57;;;;;;;;;;4369288;32;20343;-52
2020/12/24 10:32:17;;;;;;;196.90;92.63;;;;;;;;;;4368764;32;21033;-52
2020/12/24 10:34:42;;;;;;;203.23;102.47;;;;;;;;;;4367577;32;21505;-52
2020/12/24 10:37:08;;;;;;;222.30;110.53;;;;;;;;;;4369203;32;20490;-52
2020/12/24 10:39:33;;;;;;;227.27;107.73;;;;;;;;;;4368689;32;20439;-52
2020/12/24 10:41:59;;;;;;;215.23;107.03;;;;;;;;;;4366312;32;20341;-52
2020/12/24 10:44:25;;;;;;;234.07;106.40;;;;;;;;;;4368785;32;20264;-53
2020/12/24 10:46:55;;;;;;;237.10;120.47;;;;;;;;;;4356094;32;20821;-52
2020/12/24 10:49:21;;;;;;;222.33;109.80;;;;;;;;;;4369677;32;20301;-52
2020/12/24 10:51:46;;;;;;;236.03;110.47;;;;;;;;;;4369817;32;20300;-54
2020/12/24 10:54:11;;;;;;;233.37;111.40;;;;;;;;;;4367968;32;20443;-53
2020/12/24 10:56:37;;;;;;;230.13;114.77;;;;;;;;;;4369400;32;20651;-53
2020/12/24 10:59:03;;;;;;;246.33;116.23;;;;;;;;;;4370051;32;20369;-53
2020/12/24 11:01:28;;;;;;;224.07;110.40;;;;;;;;;;4350837;32;20515;-53
2020/12/24 11:03:54;;;;;;;222.00;114.17;;;;;;;;;;4366753;32;20335;-52
2020/12/24 11:06:21;;;;;;;230.00;113.37;;;;;;;;;;4352710;32;20408;-53
2020/12/24 11:08:52;;;;;;;238.00;111.70;;;;;;;;;;4367209;32;20222;-52
2020/12/24 11:11:19;;;;;;;264.93;131.93;;;;;;;;;;4367547;32;20653;-53
2020/12/24 11:13:46;;;;;;;265.00;129.33;;;;;;;;;;4343991;32;20238;-53
2020/12/24 11:16:22;;;;;;;247.77;128.73;;;;;;;;;;4367149;32;20297;-53
2020/12/24 11:18:48;;;;;;;262.57;131.27;;;;;;;;;;4347210;32;20327;-53
2020/12/24 11:21:14;;;;;;;273.33;128.57;;;;;;;;;;4363106;32;20344;-53
2020/12/24 11:23:39;;;;;;;281.53;137.90;;;;;;;;;;4360470;32;20720;-53
2020/12/24 11:26:05;;;;;;;282.70;141.53;;;;;;;;;;4361647;32;20244;-54
2020/12/24 11:28:30;;;;;;;285.70;143.77;;;;;;;;;;4363378;32;20898;-52
2020/12/24 11:30:56;;;;;;;288.80;146.07;;;;;;;;;;4352291;32;20351;-52
2020/12/24 11:33:21;;;;;;;309.07;151.20;;;;;;;;;;4360253;32;20277;-52
2020/12/24 11:35:46;;;;;;;274.77;140.00;;;;;;;;;;4334532;32;20481;-52
2020/12/24 11:38:12;;;;;;;297.23;147.70;;;;;;;;;;4341251;32;20797;-54
2020/12/24 11:40:38;;;;;;;296.03;148.83;;;;;;;;;;4346480;32;20899;-54
2020/12/24 11:43:04;;;;;;;302.33;149.63;;;;;;;;;;4366219;32;20286;-54
2020/12/24 11:45:29;;;;;;;312.57;151.87;;;;;;;;;;4352592;32;20267;-54
2020/12/24 11:47:55;;;;;;;310.73;147.90;;;;;;;;;;4365526;32;20576;-55
2020/12/24 11:50:21;;;;;;;276.43;143.57;;;;;;;;;;4366536;32;20264;-55
2020/12/24 11:52:46;;;;;;;301.23;150.67;;;;;;;;;;4365983;32;20213;-55
2020/12/24 11:55:12;;;;;;;315.30;155.37;;;;;;;;;;4368258;32;20332;-55
2020/12/24 11:57:38;;;;;;;325.30;162.37;;;;;;;;;;4367894;32;20377;-54
2020/12/24 12:00:09;;;;;;;316.80;159.80;;;;;;;;;;4367291;32;20879;-54
2020/12/24 12:02:34;;;;;;;329.17;162.80;;;;;;;;;;4368389;32;20358;-53
2020/12/24 12:05:00;;;;;;;320.67;166.17;;;;;;;;;;4348500;32;20533;-54
2020/12/24 12:07:26;;;;;;;326.00;157.40;;;;;;;;;;4351109;32;20293;-55
2020/12/24 12:09:51;;;;;;;296.87;151.70;;;;;;;;;;4367462;32;20566;-55
2020/12/24 12:12:17;;;;;;;289.23;143.40;;;;;;;;;;4367635;32;20336;-54
2020/12/24 12:14:43;;;;;;;279.60;144.07;;;;;;;;;;4367842;32;20354;-54
2020/12/24 12:17:12;;;;;;;291.77;146.57;;;;;;;;;;4368212;32;20313;-54
2020/12/24 12:19:38;;;;;;;248.90;130.93;;;;;;;;;;4367881;32;20329;-54
2020/12/24 12:22:05;;;;;;;282.17;143.20;;;;;;;;;;4363928;32;20432;-55
2020/12/24 12:24:30;;;;;;;320.50;162.60;;;;;;;;;;4354852;32;20280;-55
2020/12/24 12:26:55;;;;;;;306.57;159.70;;;;;;;;;;4343555;32;20690;-54
2020/12/24 12:29:21;;;;;;;511.33;300.87;;;;;;;;;;4368190;32;20596;-54
2020/12/24 12:31:46;;;;;;;366.20;194.83;;;;;;;;;;4368309;32;20658;-55
2020/12/24 12:34:12;;;;;;;328.60;170.87;;;;;;;;;;4354053;32;20848;-55
2020/12/24 12:36:37;;;;;;;339.03;168.77;;;;;;;;;;4369250;32;20325;-60
2020/12/24 12:39:02;;;;;;;356.17;181.33;;;;;;;;;;4368831;32;20326;-60
2020/12/24 12:41:28;;;;;;;315.90;163.00;;;;;;;;;;4369730;32;20698;-61
2020/12/24 12:43:55;;;;;;;333.37;183.63;;;;;;;;;;4368866;32;20432;-62
2020/12/24 12:46:22;;;;;;;439.13;241.00;;;;;;;;;;4366304;32;20529;-56
2020/12/24 12:48:48;;;;;;;301.40;157.70;;;;;;;;;;4367419;32;20335;-54
2020/12/24 12:51:14;;;;;;;327.07;161.27;;;;;;;;;;4354409;32;20301;-53
2020/12/24 12:53:39;;;;;;;325.40;159.53;;;;;;;;;;4368045;32;20662;-54
2020/12/24 12:56:12;;;;;;;401.63;202.13;;;;;;;;;;4369112;32;20265;-54
2020/12/24 12:58:42;;;;;;;359.13;180.23;;;;;;;;;;4370410;32;20339;-55
2020/12/24 13:01:09;;;;;;;353.60;184.33;;;;;;;;;;4371839;32;20968;-53
2020/12/24 13:03:35;;;;;;;290.70;144.93;;;;;;;;;;4370728;32;20381;-55
2020/12/24 13:06:00;;;;;;;301.20;147.57;;;;;;;;;;4371389;32;20714;-54
2020/12/24 13:08:26;;;;;;;295.63;140.43;;;;;;;;;;4370396;32;20230;-54
2020/12/24 13:10:51;;;;;;;307.57;150.60;;;;;;;;;;4371164;32;20454;-54
2020/12/24 13:13:17;;;;;;;257.50;125.87;;;;;;;;;;4370495;32;20442;-54
2020/12/24 13:15:45;;;;;;;256.67;135.67;;;;;;;;;;4371804;32;20329;-53
2020/12/24 13:18:12;;;;;;;212.27;105.03;;;;;;;;;;4371132;32;20211;-54
2020/12/24 13:20:38;;;;;;;250.83;121.20;;;;;;;;;;4370659;32;20316;-54
2020/12/24 13:23:04;;;;;;;200.53;105.13;;;;;;;;;;4370955;32;20355;-53
2020/12/24 13:25:30;;;;;;;180.77;99.67;;;;;;;;;;4370961;32;20240;-54
2020/12/24 13:27:56;;;;;;;194.73;102.57;;;;;;;;;;4370950;32;20730;-54
2020/12/24 13:30:25;;;;;;;185.53;96.90;;;;;;;;;;4370005;32;20233;-54
2020/12/24 13:32:51;;;;;;;214.17;109.30;;;;;;;;;;4370102;32;20222;-54
2020/12/24 13:35:17;;;;;;;203.23;108.00;;;;;;;;;;4370679;32;20218;-55
2020/12/24 13:37:42;;;;;;;198.87;97.83;;;;;;;;;;4370468;32;20289;-53
2020/12/24 13:40:08;;;;;;;215.80;107.90;;;;;;;;;;4370779;32;20673;-55
2020/12/24 13:42:33;;;;;;;198.07;100.33;;;;;;;;;;4369149;32;20289;-55
2020/12/24 13:44:59;;;;;;;179.07;93.87;;;;;;;;;;4368656;32;20275;-54
2020/12/24 13:47:24;;;;;;;221.60;122.77;;;;;;;;;;4368868;32;20365;-54
2020/12/24 13:49:50;;;;;;;220.47;106.03;;;;;;;;;;4368335;32;20295;-54
2020/12/24 13:52:15;;;;;;;227.20;111.07;;;;;;;;;;4356163;32;20316;-55
2020/12/24 13:54:40;;;;;;;217.80;111.00;;;;;;;;;;4368725;32;20349;-54
2020/12/24 13:57:09;;;;;;;244.80;117.33;;;;;;;;;;4369882;32;20393;-54
2020/12/24 13:59:34;;;;;;;227.37;107.70;;;;;;;;;;4371806;32;20397;-55
2020/12/24 14:02:01;;;;;;;220.60;110.43;;;;;;;;;;4373343;32;20303;-55